createdAt,value
2018-09-19T00:00:28.070Z,1.70
2018-09-19T00:02:57.308Z,1.80
2018-09-19T00:05:26.463Z,2.33
2018-09-19T00:07:55.564Z,2.12
2018-09-19T00:10:24.854Z,3.05
2018-09-19T00:12:54.299Z,2.20
2018-09-19T00:15:23.455Z,2.05
2018-09-19T00:17:52.687Z,3.15
2018-09-19T00:20:21.991Z,2.10
2018-09-19T00:22:51.182Z,2.90
2018-09-19T00:25:20.491Z,2.40
2018-09-19T00:27:49.653Z,2.33
2018-09-19T00:30:18.775Z,2.67
2018-09-19T00:32:48.200Z,2.00
2018-09-19T00:35:17.445Z,3.30
2018-09-19T00:37:46.634Z,2.75
2018-09-19T00:40:15.970Z,3.17
2018-09-19T00:42:45.442Z,5.00
2018-09-19T00:45:14.677Z,1.87
2018-09-19T00:47:44.024Z,2.60
2018-09-19T00:50:13.168Z,3.40
2018-09-19T00:52:42.568Z,2.20
2018-09-19T00:55:11.737Z,2.95
2018-09-19T00:57:40.971Z,2.17
2018-09-19T01:00:10.227Z,2.10
2018-09-19T01:02:39.363Z,1.92
2018-09-19T01:05:08.637Z,2.22
2018-09-19T01:07:37.771Z,3.22
2018-09-19T01:10:07.025Z,2.22
2018-09-19T01:12:36.465Z,2.10
2018-09-19T01:15:05.850Z,2.85
2018-09-19T01:17:35.230Z,2.15
2018-09-19T01:20:04.561Z,2.50
2018-09-19T01:22:33.833Z,2.08
2018-09-19T01:25:03.055Z,1.87
2018-09-19T01:27:32.350Z,3.05
2018-09-19T01:30:01.762Z,3.33
2018-09-19T01:32:31.055Z,4.10
2018-09-19T01:35:00.377Z,3.80
2018-09-19T01:37:29.556Z,3.52
2018-09-19T01:39:58.837Z,3.00
2018-09-19T01:42:27.965Z,2.37
2018-09-19T01:44:57.018Z,2.65
2018-09-19T01:47:26.240Z,2.20
2018-09-19T01:49:55.414Z,2.55
2018-09-19T01:52:24.630Z,3.00
2018-09-19T01:54:53.837Z,2.50
2018-09-19T01:57:23.036Z,2.60
2018-09-19T01:59:52.287Z,2.30
2018-09-19T02:02:21.508Z,2.22
2018-09-19T02:04:50.722Z,3.17
2018-09-19T02:07:20.122Z,2.80
2018-09-19T02:09:49.318Z,2.45
2018-09-19T02:12:18.533Z,2.37
2018-09-19T02:14:47.808Z,2.30
2018-09-19T02:17:17.022Z,2.47
2018-09-19T02:19:46.282Z,2.37
2018-09-19T02:22:15.617Z,2.40
2018-09-19T02:24:44.994Z,2.47
2018-09-19T02:27:14.215Z,2.30
2018-09-19T02:29:44.341Z,2.40
2018-09-19T02:32:13.642Z,2.35
2018-09-19T02:34:42.931Z,2.50
2018-09-19T02:37:12.152Z,2.72
2018-09-19T02:39:41.437Z,2.50
2018-09-19T02:42:10.810Z,2.40
2018-09-19T02:44:39.939Z,3.52
2018-09-19T02:47:09.087Z,2.37
2018-09-19T02:49:38.231Z,2.25
2018-09-19T02:52:07.483Z,2.60
2018-09-19T02:54:36.832Z,2.93
2018-09-19T02:57:06.208Z,2.42
2018-09-19T02:59:35.529Z,2.90
2018-09-19T03:02:04.807Z,2.33
2018-09-19T03:04:34.032Z,2.22
2018-09-19T03:07:03.119Z,2.60
2018-09-19T03:09:32.320Z,2.77
2018-09-19T03:12:01.479Z,3.55
2018-09-19T03:14:30.603Z,2.50
2018-09-19T03:16:59.916Z,2.30
2018-09-19T03:19:29.175Z,3.33
2018-09-19T03:21:58.618Z,2.50
2018-09-19T03:24:27.778Z,2.47
2018-09-19T03:26:56.998Z,2.40
2018-09-19T03:29:26.275Z,2.30
2018-09-19T03:31:55.380Z,2.17
2018-09-19T03:34:24.712Z,2.40
2018-09-19T03:36:54.072Z,2.40
2018-09-19T03:39:23.299Z,3.67
2018-09-19T03:41:52.568Z,2.40
2018-09-19T03:44:21.799Z,2.40
2018-09-19T03:46:51.066Z,2.37
2018-09-19T03:49:20.176Z,2.60
2018-09-19T03:51:49.612Z,6.58
2018-09-19T03:54:18.864Z,2.40
2018-09-19T03:56:48.089Z,2.55
2018-09-19T03:59:17.269Z,2.45
2018-09-19T04:01:46.481Z,2.98
2018-09-19T04:04:15.895Z,2.40
2018-09-19T04:06:45.238Z,3.57
2018-09-19T04:09:14.895Z,2.70
2018-09-19T04:11:44.172Z,3.75
2018-09-19T04:14:13.455Z,3.00
2018-09-19T04:16:42.732Z,3.70
2018-09-19T04:19:12.001Z,2.58
2018-09-19T04:21:56.782Z,2.50
2018-09-19T04:24:26.052Z,2.60
2018-09-19T04:26:55.457Z,3.17
2018-09-19T04:29:24.577Z,2.62
2018-09-19T04:31:53.756Z,2.95
2018-09-19T04:34:23.021Z,2.77
2018-09-19T04:36:52.167Z,2.50
2018-09-19T04:39:21.327Z,3.95
2018-09-19T04:41:50.555Z,3.00
2018-09-19T04:44:19.804Z,2.40
2018-09-19T04:46:49.959Z,2.33
2018-09-19T04:49:19.216Z,2.60
2018-09-19T04:51:48.224Z,3.20
2018-09-19T04:54:17.343Z,2.92
2018-09-19T04:56:46.711Z,3.00
2018-09-19T04:59:15.955Z,3.52
2018-09-19T05:01:45.212Z,3.33
2018-09-19T05:04:14.441Z,2.60
2018-09-19T05:06:43.726Z,3.02
2018-09-19T05:09:12.835Z,2.70
2018-09-19T05:11:42.425Z,3.00
2018-09-19T05:14:11.739Z,2.60
2018-09-19T05:16:41.138Z,2.98
2018-09-19T05:19:10.451Z,2.47
2018-09-19T05:21:39.817Z,2.80
2018-09-19T05:24:08.964Z,2.58
2018-09-19T05:26:38.113Z,2.72
2018-09-19T05:29:08.304Z,2.47
2018-09-19T05:31:37.456Z,2.00
2018-09-19T05:34:06.764Z,2.60
2018-09-19T05:36:35.928Z,2.92
2018-09-19T05:39:06.057Z,2.62
2018-09-19T05:41:35.240Z,3.93
2018-09-19T05:44:04.383Z,2.70
2018-09-19T05:46:33.675Z,2.60
2018-09-19T05:49:02.967Z,2.50
2018-09-19T05:51:32.166Z,2.92
2018-09-19T05:54:01.331Z,4.87
2018-09-19T05:56:30.455Z,3.27
2018-09-19T05:58:59.634Z,2.83
2018-09-19T06:01:29.788Z,3.20
2018-09-19T06:03:59.048Z,3.75
2018-09-19T06:06:28.324Z,2.92
2018-09-19T06:08:57.415Z,2.72
2018-09-19T06:11:26.546Z,3.33
2018-09-19T06:13:56.756Z,3.00
2018-09-19T06:16:25.870Z,3.40
2018-09-19T06:18:55.044Z,3.20
2018-09-19T06:21:24.179Z,3.10
2018-09-19T06:23:53.338Z,3.20
2018-09-19T06:26:22.766Z,3.98
2018-09-19T06:28:51.959Z,3.27
2018-09-19T06:31:21.264Z,4.58
2018-09-19T06:33:50.439Z,3.72
2018-09-19T06:36:19.721Z,3.50
2018-09-19T06:38:48.816Z,3.30
2018-09-19T06:41:18.025Z,3.47
2018-09-19T06:43:47.359Z,3.72
2018-09-19T06:46:16.736Z,3.55
2018-09-19T06:48:45.954Z,3.87
2018-09-19T06:51:15.239Z,3.90
2018-09-19T06:53:44.360Z,4.08
2018-09-19T06:56:13.516Z,3.60
2018-09-19T06:58:42.747Z,3.90
2018-09-19T07:01:12.113Z,3.55
2018-09-19T07:03:41.243Z,5.83
2018-09-19T07:06:10.441Z,3.58
2018-09-19T07:08:39.807Z,3.30
2018-09-19T07:11:09.048Z,3.47
2018-09-19T07:13:38.412Z,5.30
2018-09-19T07:16:07.538Z,4.55
2018-09-19T07:18:36.720Z,3.83
2018-09-19T07:21:05.932Z,4.00
2018-09-19T07:23:35.129Z,4.12
2018-09-19T07:26:04.334Z,3.80
2018-09-19T07:28:33.505Z,4.70
2018-09-19T07:31:02.845Z,3.75
2018-09-19T07:33:32.219Z,3.80
2018-09-19T07:36:01.388Z,4.30
2018-09-19T07:38:30.618Z,4.97
2018-09-19T07:40:59.778Z,4.50
2018-09-19T07:43:28.915Z,4.03
2018-09-19T07:45:58.083Z,4.47
2018-09-19T07:48:27.215Z,5.28
2018-09-19T07:50:56.383Z,4.70
2018-09-19T07:53:29.632Z,4.05
2018-09-19T07:55:58.903Z,4.35
2018-09-19T07:58:28.064Z,4.30
2018-09-19T08:00:57.376Z,4.30
2018-09-19T08:03:26.771Z,6.35
2018-09-19T08:05:56.100Z,4.33
2018-09-19T08:08:25.375Z,4.47
2018-09-19T08:10:54.754Z,4.53
2018-09-19T08:13:23.850Z,4.30
2018-09-19T08:15:52.984Z,4.08
2018-09-19T08:18:22.183Z,4.17
2018-09-19T08:20:51.351Z,5.00
2018-09-19T08:23:20.463Z,5.07
2018-09-19T08:25:49.635Z,5.00
2018-09-19T08:28:19.025Z,4.72
2018-09-19T08:30:48.296Z,4.80
2018-09-19T08:33:17.510Z,6.25
2018-09-19T08:35:46.847Z,5.83
2018-09-19T08:38:16.163Z,4.87
2018-09-19T08:40:45.366Z,5.05
2018-09-19T08:43:14.534Z,5.25
2018-09-19T08:45:43.764Z,6.60
2018-09-19T08:48:12.928Z,6.15
2018-09-19T08:50:42.063Z,5.53
2018-09-19T08:53:12.914Z,7.40
2018-09-19T08:55:42.431Z,4.77
2018-09-19T08:58:11.766Z,4.40
2018-09-19T09:00:40.989Z,5.03
2018-09-19T09:03:10.039Z,4.67
2018-09-19T09:05:39.161Z,4.58
2018-09-19T09:08:08.376Z,5.05
2018-09-19T09:10:37.629Z,5.00
2018-09-19T09:13:06.897Z,5.22
2018-09-19T09:15:36.106Z,5.03
2018-09-19T09:18:05.274Z,4.53
2018-09-19T09:20:34.647Z,4.80
2018-09-19T09:23:03.976Z,5.37
2018-09-19T09:25:33.267Z,6.15
2018-09-19T09:28:02.354Z,5.67
2018-09-19T09:30:31.671Z,4.95
2018-09-19T09:33:01.040Z,5.65
2018-09-19T09:35:30.367Z,5.28
2018-09-19T09:37:59.647Z,5.10
2018-09-19T09:40:28.919Z,4.53
2018-09-19T09:42:58.235Z,5.53
2018-09-19T09:45:27.576Z,5.50
2018-09-19T09:47:56.884Z,5.10
2018-09-19T09:50:26.041Z,4.90
2018-09-19T09:52:55.263Z,7.03
2018-09-19T09:55:24.535Z,6.35
2018-09-19T09:57:53.869Z,5.85
2018-09-19T10:00:28.272Z,6.53
2018-09-19T10:02:57.475Z,7.62
2018-09-19T10:05:26.661Z,5.90
2018-09-19T10:07:55.803Z,5.15
2018-09-19T10:10:24.975Z,6.37
2018-09-19T10:12:54.164Z,5.65
2018-09-19T10:15:23.371Z,6.15
2018-09-19T10:17:52.534Z,5.90
2018-09-19T10:20:21.863Z,28.90
2018-09-19T10:22:51.228Z,7.83
2018-09-19T10:25:20.567Z,7.65
2018-09-19T10:27:49.844Z,6.05
2018-09-19T10:30:19.164Z,6.65
2018-09-19T10:32:48.328Z,4.90
2018-09-19T10:35:17.550Z,6.85
2018-09-19T10:37:46.824Z,5.87
2018-09-19T10:40:16.150Z,5.37
2018-09-19T10:42:45.463Z,5.53
2018-09-19T10:45:14.627Z,5.55
2018-09-19T10:47:43.856Z,5.60
2018-09-19T10:50:13.130Z,5.75
2018-09-19T10:52:42.250Z,5.80
2018-09-19T10:55:11.546Z,5.80
2018-09-19T10:57:40.726Z,6.83
2018-09-19T11:00:10.018Z,31.47
2018-09-19T11:02:39.245Z,6.30
2018-09-19T11:05:08.539Z,7.42
2018-09-19T11:07:37.712Z,8.00
2018-09-19T11:10:07.211Z,6.70
2018-09-19T11:12:36.309Z,6.40
2018-09-19T11:15:05.493Z,9.05
2018-09-19T11:17:34.763Z,6.35
2018-09-19T11:20:04.136Z,6.37
2018-09-19T11:22:33.507Z,7.00
2018-09-19T11:25:02.803Z,7.17
2018-09-19T11:27:31.940Z,6.53
2018-09-19T11:30:01.231Z,6.40
2018-09-19T11:32:30.427Z,6.90
2018-09-19T11:35:00.019Z,5.20
2018-09-19T11:37:29.540Z,6.03
2018-09-19T11:39:58.814Z,6.17
2018-09-19T11:42:28.035Z,6.80
2018-09-19T11:44:57.320Z,7.50
2018-09-19T11:47:26.535Z,6.83
2018-09-19T11:49:55.812Z,5.93
2018-09-19T11:52:24.906Z,7.08
2018-09-19T11:54:54.130Z,7.00
2018-09-19T11:57:23.292Z,6.28
2018-09-19T11:59:52.534Z,6.42
2018-09-19T12:02:21.919Z,6.47
2018-09-19T12:04:51.314Z,5.73
2018-09-19T12:07:20.447Z,6.65
2018-09-19T12:09:49.619Z,6.30
2018-09-19T12:12:18.899Z,5.80
2018-09-19T12:14:48.123Z,7.25
2018-09-19T12:17:17.315Z,6.03
2018-09-19T12:19:46.580Z,17.97
2018-09-19T12:22:15.911Z,8.03
2018-09-19T12:24:45.188Z,7.10
2018-09-19T12:27:14.415Z,6.33
2018-09-19T12:29:43.576Z,6.15
2018-09-19T12:32:12.706Z,6.50
2018-09-19T12:34:41.967Z,7.20
2018-09-19T12:37:11.090Z,5.67
2018-09-19T12:39:40.392Z,5.70
2018-09-19T12:42:09.702Z,5.70
2018-09-19T12:44:38.991Z,5.83
2018-09-19T12:47:08.186Z,5.23
2018-09-19T12:49:37.401Z,6.10
2018-09-19T12:52:06.563Z,5.45
2018-09-19T12:54:35.683Z,6.05
2018-09-19T12:57:04.931Z,5.97
2018-09-19T12:59:34.095Z,5.62
2018-09-19T13:02:03.357Z,5.78
2018-09-19T13:04:32.680Z,5.80
2018-09-19T13:07:01.938Z,5.37
2018-09-19T13:09:31.176Z,5.58
2018-09-19T13:12:00.243Z,5.37
2018-09-19T13:14:29.363Z,6.50
2018-09-19T13:16:58.584Z,6.05
2018-09-19T13:19:27.855Z,6.80
2018-09-19T13:21:57.163Z,5.53
2018-09-19T13:24:26.530Z,6.90
2018-09-19T13:26:55.755Z,6.30
2018-09-19T13:29:25.035Z,8.18
2018-09-19T13:31:54.979Z,6.28
2018-09-19T13:34:24.324Z,6.08
2018-09-19T13:36:53.550Z,5.67
2018-09-19T13:39:22.670Z,5.00
2018-09-19T13:41:51.940Z,5.62
2018-09-19T13:44:21.068Z,5.78
2018-09-19T13:46:50.234Z,5.50
2018-09-19T13:49:24.844Z,5.50
2018-09-19T13:51:54.059Z,5.60
2018-09-19T13:54:23.291Z,5.65
2018-09-19T13:56:52.483Z,6.10
2018-09-19T13:59:21.653Z,5.53
2018-09-19T14:01:50.771Z,5.42
2018-09-19T14:04:20.246Z,5.20
2018-09-19T14:06:49.483Z,5.80
2018-09-19T14:09:18.846Z,7.58
2018-09-19T14:11:48.152Z,6.03
2018-09-19T14:14:17.398Z,5.80
2018-09-19T14:16:46.754Z,6.55
2018-09-19T14:19:16.362Z,5.95
2018-09-19T14:21:45.647Z,5.80
2018-09-19T14:24:14.879Z,5.75
2018-09-19T14:26:44.328Z,6.67
2018-09-19T14:29:13.591Z,5.70
2018-09-19T14:31:42.967Z,5.70
2018-09-19T14:34:12.126Z,5.72
2018-09-19T14:36:41.244Z,4.85
2018-09-19T14:39:10.380Z,5.90
2018-09-19T14:41:39.536Z,6.05
2018-09-19T14:44:08.668Z,5.75
2018-09-19T14:46:38.154Z,5.70
2018-09-19T14:49:07.775Z,5.65
2018-09-19T14:51:37.083Z,5.97
2018-09-19T14:54:06.503Z,5.65
2018-09-19T14:56:35.676Z,6.90
2018-09-19T14:59:04.947Z,5.60
2018-09-19T15:01:34.069Z,5.62
2018-09-19T15:04:03.218Z,5.62
2018-09-19T15:06:33.179Z,5.67
2018-09-19T15:09:02.457Z,7.47
2018-09-19T15:11:31.670Z,5.92
2018-09-19T15:14:00.943Z,5.42
2018-09-19T15:16:29.983Z,5.22
2018-09-19T15:18:59.241Z,5.10
2018-09-19T15:21:28.479Z,5.25
2018-09-19T15:23:57.868Z,5.87
2018-09-19T15:26:27.139Z,5.85
2018-09-19T15:28:56.367Z,6.20
2018-09-19T15:31:25.535Z,5.08
2018-09-19T15:33:54.864Z,5.15
2018-09-19T15:36:24.131Z,4.70
2018-09-19T15:38:53.359Z,4.78
2018-09-19T15:41:22.432Z,4.40
2018-09-19T15:43:51.551Z,4.45
2018-09-19T15:46:20.750Z,4.40
2018-09-19T15:48:49.932Z,4.45
2018-09-19T15:51:19.143Z,6.03
2018-09-19T15:53:48.510Z,4.35
2018-09-19T15:56:17.739Z,5.00
2018-09-19T15:58:47.015Z,5.03
2018-09-19T16:01:16.564Z,4.45
2018-09-19T16:03:45.755Z,5.25
2018-09-19T16:06:15.050Z,4.22
2018-09-19T16:08:44.112Z,5.90
2018-09-19T16:11:13.298Z,4.97
2018-09-19T16:13:42.328Z,5.15
2018-09-19T16:16:11.603Z,4.05
2018-09-19T16:18:40.835Z,4.45
2018-09-19T16:21:10.010Z,4.12
2018-09-19T16:23:39.227Z,5.58
2018-09-19T16:26:08.548Z,4.42
2018-09-19T16:28:38.535Z,4.05
2018-09-19T16:31:08.271Z,4.80
2018-09-19T16:33:37.511Z,4.20
2018-09-19T16:36:06.334Z,4.60
2018-09-19T16:38:35.845Z,4.50
2018-09-19T16:41:05.007Z,4.42
2018-09-19T16:43:34.230Z,4.35
2018-09-19T16:46:03.500Z,4.50
2018-09-19T16:48:32.939Z,4.10
2018-09-19T16:51:02.132Z,4.40
2018-09-19T16:53:31.296Z,4.55
2018-09-19T16:56:00.678Z,5.97
2018-09-19T16:58:29.803Z,4.15
2018-09-19T17:00:59.327Z,5.40
2018-09-19T17:03:28.602Z,4.12
2018-09-19T17:05:57.724Z,4.55
2018-09-19T17:08:27.023Z,4.72
2018-09-19T17:10:56.323Z,5.27
2018-09-19T17:13:25.622Z,6.20
2018-09-19T17:15:55.004Z,4.65
2018-09-19T17:18:24.335Z,4.67
2018-09-19T17:20:53.631Z,4.97
2018-09-19T17:23:22.799Z,6.08
2018-09-19T17:25:51.869Z,5.25
2018-09-19T17:28:20.988Z,5.50
2018-09-19T17:30:50.212Z,5.83
2018-09-19T17:33:19.407Z,4.95
2018-09-19T17:35:48.572Z,5.50
2018-09-19T17:38:17.774Z,6.53
2018-09-19T17:40:47.274Z,5.30
2018-09-19T17:43:18.198Z,5.92
2018-09-19T17:45:47.597Z,4.87
2018-09-19T17:48:16.761Z,5.20
2018-09-19T17:50:45.917Z,5.85
2018-09-19T17:53:15.246Z,5.53
2018-09-19T17:55:44.644Z,5.62
2018-09-19T17:58:14.808Z,6.08
2018-09-19T18:00:44.346Z,6.67
2018-09-19T18:03:13.917Z,5.67
2018-09-19T18:05:43.169Z,6.90
2018-09-19T18:08:12.421Z,8.08
2018-09-19T18:10:41.751Z,8.30
2018-09-19T18:13:12.040Z,10.33
2018-09-19T18:15:42.396Z,7.95
2018-09-19T18:18:12.479Z,8.10
2018-09-19T18:20:43.956Z,6.67
2018-09-19T18:23:13.364Z,6.72
2018-09-19T18:25:43.131Z,6.70
2018-09-19T18:28:12.924Z,6.25
2018-09-19T18:30:42.239Z,6.17
2018-09-19T18:33:13.210Z,5.80
2018-09-19T18:35:42.600Z,6.33
2018-09-19T18:38:11.463Z,5.87
2018-09-19T18:40:41.368Z,6.95
2018-09-19T18:43:10.747Z,5.65
2018-09-19T18:45:40.658Z,5.33
2018-09-19T18:48:09.522Z,6.33
2018-09-19T18:50:38.783Z,5.45
2018-09-19T18:53:07.691Z,6.40
2018-09-19T18:55:36.903Z,7.37
2018-09-19T18:58:05.792Z,5.45
2018-09-19T19:00:34.831Z,6.05
2018-09-19T19:03:04.758Z,6.08
2018-09-19T19:05:33.631Z,6.87
2018-09-19T19:08:03.277Z,7.33
2018-09-19T19:10:32.167Z,5.90
2018-09-19T19:13:01.615Z,7.47
2018-09-19T19:15:31.840Z,7.58
2018-09-19T19:18:00.752Z,6.65
2018-09-19T19:20:31.009Z,5.58
2018-09-19T19:22:59.885Z,6.80
2018-09-19T19:25:29.368Z,5.37
2018-09-19T19:27:58.276Z,7.08
2018-09-19T19:30:27.255Z,6.17
2018-09-19T19:32:56.687Z,8.18
2018-09-19T19:35:26.735Z,6.20
2018-09-19T19:37:55.714Z,5.90
2018-09-19T19:40:24.572Z,6.92
2018-09-19T19:42:54.337Z,6.58
2018-09-19T19:45:23.183Z,5.92
2018-09-19T19:47:52.076Z,6.65
2018-09-19T19:50:22.041Z,6.35
2018-09-19T19:52:50.994Z,7.12
2018-09-19T19:55:20.678Z,6.42
2018-09-19T19:57:50.639Z,7.33
2018-09-19T20:00:20.404Z,7.05
2018-09-19T20:02:49.940Z,6.73
2018-09-19T20:05:20.238Z,6.85
2018-09-19T20:07:51.705Z,7.33
2018-09-19T20:10:20.968Z,7.35
2018-09-19T20:12:52.770Z,6.83
2018-09-19T20:15:21.927Z,8.05
2018-09-19T20:17:51.174Z,8.13
2018-09-19T20:20:20.210Z,9.00
2018-09-19T20:22:49.275Z,7.67
2018-09-19T20:25:18.599Z,7.20
2018-09-19T20:27:47.779Z,7.17
2018-09-19T20:30:17.212Z,7.70
2018-09-19T20:32:46.472Z,7.87
2018-09-19T20:35:15.795Z,7.47
2018-09-19T20:37:44.995Z,7.87
2018-09-19T20:40:14.196Z,8.55
2018-09-19T20:42:43.388Z,7.78
2018-09-19T20:45:12.551Z,8.38
2018-09-19T20:47:41.680Z,8.73
2018-09-19T20:50:10.859Z,9.40
2018-09-19T20:52:40.094Z,8.25
2018-09-19T20:55:09.255Z,7.67
2018-09-19T20:57:38.471Z,7.92
2018-09-19T21:00:07.950Z,7.75
2018-09-19T21:02:37.171Z,7.35
2018-09-19T21:05:06.347Z,8.08
2018-09-19T21:07:35.575Z,7.80
2018-09-19T21:10:04.752Z,8.27
2018-09-19T21:12:33.859Z,8.03
2018-09-19T21:15:03.242Z,9.78
2018-09-19T21:17:32.466Z,9.40
2018-09-19T21:20:01.766Z,10.03
2018-09-19T21:22:30.999Z,9.58
2018-09-19T21:25:00.027Z,9.08
2018-09-19T21:27:29.123Z,9.93
2018-09-19T21:29:58.247Z,9.83
2018-09-19T21:32:27.415Z,9.68
2018-09-19T21:34:56.444Z,9.43
2018-09-19T21:37:25.593Z,9.98
2018-09-19T21:39:55.035Z,8.90
2018-09-19T21:42:24.435Z,9.13
2018-09-19T21:44:53.719Z,9.38
2018-09-19T21:47:22.843Z,10.33
2018-09-19T21:49:51.990Z,9.95
2018-09-19T21:52:21.137Z,9.60
2018-09-19T21:54:50.510Z,9.65
2018-09-19T21:57:20.549Z,9.10
2018-09-19T21:59:49.755Z,9.63
2018-09-19T22:02:19.070Z,8.30
2018-09-19T22:04:48.723Z,9.15
2018-09-19T22:07:17.919Z,9.73
2018-09-19T22:09:47.144Z,9.63
2018-09-19T22:12:16.322Z,10.60
2018-09-19T22:14:45.444Z,9.93
2018-09-19T22:17:14.600Z,9.35
2018-09-19T22:19:43.723Z,9.15
2018-09-19T22:22:13.040Z,9.08
2018-09-19T22:24:42.225Z,9.33
2018-09-19T22:27:11.508Z,9.38
2018-09-19T22:29:40.792Z,9.98
2018-09-19T22:32:10.024Z,9.40
2018-09-19T22:34:39.300Z,9.20
2018-09-19T22:37:08.424Z,9.85
2018-09-19T22:39:37.702Z,9.15
2018-09-19T22:42:07.027Z,9.30
2018-09-19T22:44:36.219Z,9.30
2018-09-19T22:47:05.475Z,9.20
2018-09-19T22:49:34.813Z,9.00
2018-09-19T22:52:03.974Z,9.20
2018-09-19T22:54:33.212Z,8.60
2018-09-19T22:57:02.483Z,9.38
2018-09-19T22:59:31.590Z,9.55
2018-09-19T23:02:00.746Z,8.85
2018-09-19T23:04:29.978Z,9.15
2018-09-19T23:06:59.074Z,9.17
2018-09-19T23:09:28.263Z,8.58
2018-09-19T23:11:57.596Z,8.05
2018-09-19T23:14:26.852Z,8.30
2018-09-19T23:16:56.084Z,8.70
2018-09-19T23:19:25.367Z,7.87
2018-09-19T23:21:54.583Z,8.15
2018-09-19T23:24:23.753Z,8.15
2018-09-19T23:26:52.874Z,7.83
2018-09-19T23:29:22.170Z,8.30
2018-09-19T23:31:51.481Z,8.10
2018-09-19T23:34:20.867Z,7.87
2018-09-19T23:36:50.049Z,8.40
2018-09-19T23:39:19.271Z,7.72
2018-09-19T23:41:48.541Z,7.42
2018-09-19T23:44:17.879Z,7.40
2018-09-19T23:46:47.238Z,7.60
2018-09-19T23:49:16.675Z,7.65
2018-09-19T23:51:45.875Z,7.37
2018-09-19T23:54:15.044Z,7.28
2018-09-19T23:56:44.179Z,7.40
2018-09-19T23:59:13.337Z,7.87
